Sandra Hugh — WDD9019 — position and weather

sailwx.info

Track history (hours):
 
Tides and Currents Weather Stations Pressure Air Temp Water Temp Dewpoint Dewpoint Depression Visibility Wind Speed Wind Dir Waves Ship Positions

Sandra Hugh

Owner: Sortwell Inc., DBA AmNav Maritime Services, Oakland, CA. More information available from US FCC via Universal Licensing System and Coast Guard Vessel Documentation Center.

Last reported at 2014-Oct-25 18:08 UTC. Time now 2014-Oct-25 19:10 UTC.
Position N 38°02' W 122°09'.

Length 24 m; draft 4.9 m.

Type: Tug. MMSI: 367305920.

Date/timePositionNaut miles runAvg speedWind from/ knotsBaromVisibWave heightAir tempDewpointWater temp
2014-Oct-25 18:08N 38°02' W 122°09'6 9.2
2014-Oct-25 17:28N 38°04' W 122°16'1010.5
2014-Oct-25 16:33N 37°58' W 122°26'10 9.9
2014-Oct-25 15:33N 37°49' W 122°21'2 1.8
2014-Oct-25 14:32N 37°49' W 122°19'0 0.0
2014-Oct-25 13:32N 37°49' W 122°19'0 0.0
2014-Oct-25 12:32N 37°49' W 122°19'0 0.0
2014-Oct-25 11:32N 37°49' W 122°19'0 0.0
2014-Oct-25 10:32N 37°49' W 122°19'0 0.0
2014-Oct-25 09:32N 37°49' W 122°19'0 0.0
2014-Oct-25 08:32N 37°49' W 122°19'0 0.0
2014-Oct-25 07:32N 37°49' W 122°19'0 0.0
2014-Oct-25 06:32N 37°49' W 122°19'0 0.0
2014-Oct-25 05:32N 37°49' W 122°19'0 0.0
2014-Oct-25 04:32N 37°49' W 122°19'0 0.0
2014-Oct-25 03:32N 37°49' W 122°19'0 0.0
2014-Oct-25 02:32N 37°49' W 122°19'1 0.8
2014-Oct-25 01:33N 37°49' W 122°19'0 0.2
2014-Oct-25 00:33N 37°49' W 122°19'0 0.0
2014-Oct-24 23:33N 37°49' W 122°19'1 1.4
2014-Oct-24 22:33N 37°49' W 122°21'6 5.8
2014-Oct-24 21:33N 37°55' W 122°22'0 0.2
2014-Oct-24 20:27N 37°55' W 122°22'1 1.3
2014-Oct-24 19:33N 37°54' W 122°23'6 6.2
2014-Oct-24 18:34N 37°49' W 122°19'1 0.7
2014-Oct-24 17:30N 37°49' W 122°19'0 0.0
2014-Oct-24 16:33N 37°49' W 122°19'2 1.7
2014-Oct-24 15:34N 37°48' W 122°20'2 1.9
2014-Oct-24 14:33N 37°48' W 122°18'1 1.0
2014-Oct-24 13:32N 37°48' W 122°19'3 2.6
2014-Oct-24 12:33N 37°48' W 122°22'2 1.9
2014-Oct-24 11:33N 37°49' W 122°20'0 0.0
2014-Oct-24 10:33N 37°49' W 122°20'0 0.0
2014-Oct-24 09:33N 37°49' W 122°20'0 0.0
2014-Oct-24 08:33N 37°49' W 122°20'0 0.0
2014-Oct-24 07:33N 37°49' W 122°20'0 0.0
2014-Oct-24 06:33N 37°49' W 122°20'0 0.0
2014-Oct-24 05:33N 37°49' W 122°20'0 0.0
2014-Oct-24 04:33N 37°49' W 122°20'6 6.2
2014-Oct-24 03:33N 37°54' W 122°23'1 0.8
2014-Oct-24 02:33N 37°54' W 122°22'4 4.2
2014-Oct-24 01:33N 37°57' W 122°26'1 1.0
2014-Oct-24 00:33N 37°58' W 122°26'8 8.4
2014-Oct-23 23:33N 38°03' W 122°18'  
2014-Oct-21 17:30N 38°03' W 122°12'9 9.6
2014-Oct-21 16:33N 38°01' W 122°23'1010.0
2014-Oct-21 15:33N 37°51' W 122°23'4 3.4
2014-Oct-21 14:29N 37°49' W 122°19'0 0.0
2014-Oct-21 13:32N 37°49' W 122°19'0 0.0
2014-Oct-21 12:29N 37°49' W 122°19'0 0.0
2014-Oct-21 11:32N 37°49' W 122°19'0 0.0
2014-Oct-21 10:32N 37°49' W 122°19'0 0.0
2014-Oct-21 09:32N 37°49' W 122°19'0 0.0
2014-Oct-21 08:32N 37°49' W 122°19'0 0.0
2014-Oct-21 07:32N 37°49' W 122°19'0 0.0
2014-Oct-21 06:32N 37°49' W 122°19'0 0.0
2014-Oct-21 05:32N 37°49' W 122°19'0 0.0
2014-Oct-21 04:32N 37°49' W 122°19'0 0.0
2014-Oct-21 03:32N 37°49' W 122°19'0 0.0
2014-Oct-21 02:32N 37°49' W 122°19'0 0.0
2014-Oct-21 01:32N 37°49' W 122°19'0 0.0
2014-Oct-21 00:32N 37°49' W 122°19'0 0.0
2014-Oct-20 23:32N 37°49' W 122°19'0 0.0
2014-Oct-20 22:32N 37°49' W 122°19'0 0.0
2014-Oct-20 21:32N 37°49' W 122°19'0 0.0
2014-Oct-20 20:32N 37°49' W 122°19'0 0.0
2014-Oct-20 19:32N 37°49' W 122°19'0 0.0
2014-Oct-20 18:32N 37°49' W 122°19'0 0.0
2014-Oct-20 17:32N 37°49' W 122°19'0 0.0
2014-Oct-20 16:32N 37°49' W 122°19'0 0.0
2014-Oct-20 15:32N 37°49' W 122°19'0 0.0
2014-Oct-20 14:32N 37°49' W 122°19'0 0.0
2014-Oct-20 13:32N 37°49' W 122°19'0 0.0
2014-Oct-20 12:32N 37°49' W 122°19'0 0.0
2014-Oct-20 11:32N 37°49' W 122°19'0 0.0
2014-Oct-20 10:32N 37°49' W 122°19'0 0.0
2014-Oct-20 09:32N 37°49' W 122°19'0 0.0
2014-Oct-20 08:32N 37°49' W 122°19'0 0.0
2014-Oct-20 07:32N 37°49' W 122°19'0 0.0
2014-Oct-20 06:32N 37°49' W 122°19'0 0.0
2014-Oct-20 05:32N 37°49' W 122°19'0 0.0
2014-Oct-20 04:32N 37°49' W 122°19'0 0.0
2014-Oct-20 03:32N 37°49' W 122°19'0 0.0
2014-Oct-20 02:32N 37°49' W 122°19'0 0.0
2014-Oct-20 01:32N 37°49' W 122°19'2 1.4
2014-Oct-20 00:25N 37°48' W 122°19'1 1.4
2014-Oct-19 23:34N 37°47' W 122°17'3 3.2
2014-Oct-19 22:33N 37°48' W 122°21'3 2.4
2014-Oct-19 21:31N 37°49' W 122°19'0 0.0
2014-Oct-19 20:31N 37°49' W 122°19'0 0.0
2014-Oct-19 19:31N 37°49' W 122°19'0 0.0
2014-Oct-19 18:31N 37°49' W 122°19'0 0.0
2014-Oct-19 17:31N 37°49' W 122°19'0 0.0
2014-Oct-19 16:31N 37°49' W 122°19'0 0.0
2014-Oct-19 15:31N 37°49' W 122°19'0 0.0
2014-Oct-19 14:31N 37°49' W 122°19'0 0.0
2014-Oct-19 13:31N 37°49' W 122°19'2 1.6
2014-Oct-19 12:33N 37°48' W 122°20'1 1.0
2014-Oct-19 11:33N 37°49' W 122°20'1 0.9
2014-Oct-19 10:31N 37°49' W 122°19'0 0.0
2014-Oct-19 09:31N 37°49' W 122°19'0 0.0
2014-Oct-19 08:31N 37°49' W 122°19'0 0.0
2014-Oct-19 07:31N 37°49' W 122°19'0 0.0
2014-Oct-19 06:31N 37°49' W 122°19'0 0.0
2014-Oct-19 05:31N 37°49' W 122°19'0 0.0
2014-Oct-19 04:31N 37°49' W 122°19'0 0.0
2014-Oct-19 03:31N 37°49' W 122°19'0 0.0
2014-Oct-19 02:31N 37°49' W 122°19'0 0.0
2014-Oct-19 01:31N 37°49' W 122°19'0 0.0
2014-Oct-19 00:31N 37°49' W 122°19'0 0.0
2014-Oct-18 23:31N 37°49' W 122°19'0 0.0
2014-Oct-18 22:31N 37°49' W 122°19'0 0.0
2014-Oct-18 21:31N 37°49' W 122°19'0 0.0
2014-Oct-18 20:31N 37°49' W 122°19'0 0.0
2014-Oct-18 19:31N 37°49' W 122°19'0 0.0
2014-Oct-18 18:31N 37°49' W 122°19'0 0.0
2014-Oct-18 17:31N 37°49' W 122°19'0 0.0
2014-Oct-18 16:31N 37°49' W 122°19'0 0.0
2014-Oct-18 15:31N 37°49' W 122°19'0 0.0
2014-Oct-18 14:31N 37°49' W 122°19'2 1.7
2014-Oct-18 13:33N 37°48' W 122°19'0 0.1
2014-Oct-18 12:33N 37°48' W 122°19'2 1.6
2014-Oct-18 11:34N 37°49' W 122°19'0 0.0
2014-Oct-18 10:31N 37°49' W 122°19'0 0.0
2014-Oct-18 09:31N 37°49' W 122°19'0 0.0
2014-Oct-18 08:31N 37°49' W 122°19'0 0.0
2014-Oct-18 07:34N 37°49' W 122°19'1 1.4
2014-Oct-18 06:33N 37°49' W 122°20'7 7.0
2014-Oct-18 05:32N 37°49' W 122°29'5 5.1
2014-Oct-18 04:33N 37°53' W 122°26'10 9.5
2014-Oct-18 03:33N 38°02' W 122°22'7 0.4
2014-Oct-17 11:08N 38°04' W 122°13'5 8.5
2014-Oct-17 10:32N 38°03' W 122°19'8 8.4
2014-Oct-17 09:34N 37°56' W 122°25'1 0.5
2014-Oct-17 08:27N 37°56' W 122°25'0 0.3
2014-Oct-17 07:33N 37°55' W 122°25'3 2.6
2014-Oct-17 06:33N 37°53' W 122°25'2 2.1
2014-Oct-17 05:32N 37°54' W 122°23'0 0.0
2014-Oct-17 04:32N 37°54' W 122°23'0 0.0
2014-Oct-17 03:32N 37°54' W 122°23'1 1.2
2014-Oct-17 02:34N 37°55' W 122°22'0 0.3
2014-Oct-17 01:33N 37°55' W 122°22'3 2.7
2014-Oct-17 00:30N 37°53' W 122°25'1 0.7
2014-Oct-16 23:29N 37°53' W 122°24'5 5.0
2014-Oct-16 22:33N 37°49' W 122°21'1 0.5
2014-Oct-16 21:32N 37°48' W 122°20'2 1.5
2014-Oct-16 20:31N 37°49' W 122°19'0 0.0
2014-Oct-16 19:31N 37°49' W 122°19'0 0.0
2014-Oct-16 18:31N 37°49' W 122°19'0 0.0
2014-Oct-16 17:31N 37°49' W 122°19'0 0.0
2014-Oct-16 16:31N 37°49' W 122°19'0 0.0
2014-Oct-16 15:31N 37°49' W 122°19'0 0.0
2014-Oct-16 14:28N 37°49' W 122°19'2 1.7
2014-Oct-16 13:31N 37°48' W 122°20'2 2.2
2014-Oct-16 12:33N 37°47' W 122°23'2 2.0
2014-Oct-16 11:33N 37°48' W 122°20'0 0.0
2014-Oct-16 03:12N 37°49' W 122°20'3 5.4
2014-Oct-16 02:33N 37°51' W 122°23'  
Track history (hours):
 
Tides and Currents Weather Stations Pressure Air Temp Water Temp Dewpoint Dewpoint Depression Visibility Wind Speed Wind Dir Waves Ship Positions

Sandra Hugh

Owner: Sortwell Inc., DBA AmNav Maritime Services, Oakland, CA. More information available from US FCC via Universal Licensing System and Coast Guard Vessel Documentation Center.

Last reported at 2014-Oct-25 18:08 UTC. Time now 2014-Oct-25 19:10 UTC.
Position N 38°02' W 122°09'.

Length 24 m; draft 4.9 m.

Type: Tug. MMSI: 367305920.

Date/timePositionNaut miles runAvg speedWind from/ knotsBaromVisibWave heightAir tempDewpointWater temp
2014-Oct-25 18:08N 38°02' W 122°09'6 9.2
2014-Oct-25 17:28N 38°04' W 122°16'1010.5
2014-Oct-25 16:33N 37°58' W 122°26'10 9.9
2014-Oct-25 15:33N 37°49' W 122°21'2 1.8
2014-Oct-25 14:32N 37°49' W 122°19'0 0.0
2014-Oct-25 13:32N 37°49' W 122°19'0 0.0
2014-Oct-25 12:32N 37°49' W 122°19'0 0.0
2014-Oct-25 11:32N 37°49' W 122°19'0 0.0
2014-Oct-25 10:32N 37°49' W 122°19'0 0.0
2014-Oct-25 09:32N 37°49' W 122°19'0 0.0
2014-Oct-25 08:32N 37°49' W 122°19'0 0.0
2014-Oct-25 07:32N 37°49' W 122°19'0 0.0
2014-Oct-25 06:32N 37°49' W 122°19'0 0.0
2014-Oct-25 05:32N 37°49' W 122°19'0 0.0
2014-Oct-25 04:32N 37°49' W 122°19'0 0.0
2014-Oct-25 03:32N 37°49' W 122°19'0 0.0
2014-Oct-25 02:32N 37°49' W 122°19'1 0.8
2014-Oct-25 01:33N 37°49' W 122°19'0 0.2
2014-Oct-25 00:33N 37°49' W 122°19'0 0.0
2014-Oct-24 23:33N 37°49' W 122°19'1 1.4
2014-Oct-24 22:33N 37°49' W 122°21'6 5.8
2014-Oct-24 21:33N 37°55' W 122°22'0 0.2
2014-Oct-24 20:27N 37°55' W 122°22'1 1.3
2014-Oct-24 19:33N 37°54' W 122°23'6 6.2
2014-Oct-24 18:34N 37°49' W 122°19'1 0.7
2014-Oct-24 17:30N 37°49' W 122°19'0 0.0
2014-Oct-24 16:33N 37°49' W 122°19'2 1.7
2014-Oct-24 15:34N 37°48' W 122°20'2 1.9
2014-Oct-24 14:33N 37°48' W 122°18'1 1.0
2014-Oct-24 13:32N 37°48' W 122°19'3 2.6
2014-Oct-24 12:33N 37°48' W 122°22'2 1.9
2014-Oct-24 11:33N 37°49' W 122°20'0 0.0
2014-Oct-24 10:33N 37°49' W 122°20'0 0.0
2014-Oct-24 09:33N 37°49' W 122°20'0 0.0
2014-Oct-24 08:33N 37°49' W 122°20'0 0.0
2014-Oct-24 07:33N 37°49' W 122°20'0 0.0
2014-Oct-24 06:33N 37°49' W 122°20'0 0.0
2014-Oct-24 05:33N 37°49' W 122°20'0 0.0
2014-Oct-24 04:33N 37°49' W 122°20'6 6.2
2014-Oct-24 03:33N 37°54' W 122°23'1 0.8
2014-Oct-24 02:33N 37°54' W 122°22'4 4.2
2014-Oct-24 01:33N 37°57' W 122°26'1 1.0
2014-Oct-24 00:33N 37°58' W 122°26'8 8.4
2014-Oct-23 23:33N 38°03' W 122°18'  
2014-Oct-21 17:30N 38°03' W 122°12'9 9.6
2014-Oct-21 16:33N 38°01' W 122°23'1010.0
2014-Oct-21 15:33N 37°51' W 122°23'4 3.4
2014-Oct-21 14:29N 37°49' W 122°19'0 0.0
2014-Oct-21 13:32N 37°49' W 122°19'0 0.0
2014-Oct-21 12:29N 37°49' W 122°19'0 0.0
2014-Oct-21 11:32N 37°49' W 122°19'0 0.0
2014-Oct-21 10:32N 37°49' W 122°19'0 0.0
2014-Oct-21 09:32N 37°49' W 122°19'0 0.0
2014-Oct-21 08:32N 37°49' W 122°19'0 0.0
2014-Oct-21 07:32N 37°49' W 122°19'0 0.0
2014-Oct-21 06:32N 37°49' W 122°19'0 0.0
2014-Oct-21 05:32N 37°49' W 122°19'0 0.0
2014-Oct-21 04:32N 37°49' W 122°19'0 0.0
2014-Oct-21 03:32N 37°49' W 122°19'0 0.0
2014-Oct-21 02:32N 37°49' W 122°19'0 0.0
2014-Oct-21 01:32N 37°49' W 122°19'0 0.0
2014-Oct-21 00:32N 37°49' W 122°19'0 0.0
2014-Oct-20 23:32N 37°49' W 122°19'0 0.0
2014-Oct-20 22:32N 37°49' W 122°19'0 0.0
2014-Oct-20 21:32N 37°49' W 122°19'0 0.0
2014-Oct-20 20:32N 37°49' W 122°19'0 0.0
2014-Oct-20 19:32N 37°49' W 122°19'0 0.0
2014-Oct-20 18:32N 37°49' W 122°19'0 0.0
2014-Oct-20 17:32N 37°49' W 122°19'0 0.0
2014-Oct-20 16:32N 37°49' W 122°19'0 0.0
2014-Oct-20 15:32N 37°49' W 122°19'0 0.0
2014-Oct-20 14:32N 37°49' W 122°19'0 0.0
2014-Oct-20 13:32N 37°49' W 122°19'0 0.0
2014-Oct-20 12:32N 37°49' W 122°19'0 0.0
2014-Oct-20 11:32N 37°49' W 122°19'0 0.0
2014-Oct-20 10:32N 37°49' W 122°19'0 0.0
2014-Oct-20 09:32N 37°49' W 122°19'0 0.0
2014-Oct-20 08:32N 37°49' W 122°19'0 0.0
2014-Oct-20 07:32N 37°49' W 122°19'0 0.0
2014-Oct-20 06:32N 37°49' W 122°19'0 0.0
2014-Oct-20 05:32N 37°49' W 122°19'0 0.0
2014-Oct-20 04:32N 37°49' W 122°19'0 0.0
2014-Oct-20 03:32N 37°49' W 122°19'0 0.0
2014-Oct-20 02:32N 37°49' W 122°19'0 0.0
2014-Oct-20 01:32N 37°49' W 122°19'2 1.4
2014-Oct-20 00:25N 37°48' W 122°19'1 1.4
2014-Oct-19 23:34N 37°47' W 122°17'3 3.2
2014-Oct-19 22:33N 37°48' W 122°21'3 2.4
2014-Oct-19 21:31N 37°49' W 122°19'0 0.0
2014-Oct-19 20:31N 37°49' W 122°19'0 0.0
2014-Oct-19 19:31N 37°49' W 122°19'0 0.0
2014-Oct-19 18:31N 37°49' W 122°19'0 0.0
2014-Oct-19 17:31N 37°49' W 122°19'0 0.0
2014-Oct-19 16:31N 37°49' W 122°19'0 0.0
2014-Oct-19 15:31N 37°49' W 122°19'0 0.0
2014-Oct-19 14:31N 37°49' W 122°19'0 0.0
2014-Oct-19 13:31N 37°49' W 122°19'2 1.6
2014-Oct-19 12:33N 37°48' W 122°20'1 1.0
2014-Oct-19 11:33N 37°49' W 122°20'1 0.9
2014-Oct-19 10:31N 37°49' W 122°19'0 0.0
2014-Oct-19 09:31N 37°49' W 122°19'0 0.0
2014-Oct-19 08:31N 37°49' W 122°19'0 0.0
2014-Oct-19 07:31N 37°49' W 122°19'0 0.0
2014-Oct-19 06:31N 37°49' W 122°19'0 0.0
2014-Oct-19 05:31N 37°49' W 122°19'0 0.0
2014-Oct-19 04:31N 37°49' W 122°19'0 0.0
2014-Oct-19 03:31N 37°49' W 122°19'0 0.0
2014-Oct-19 02:31N 37°49' W 122°19'0 0.0
2014-Oct-19 01:31N 37°49' W 122°19'0 0.0
2014-Oct-19 00:31N 37°49' W 122°19'0 0.0
2014-Oct-18 23:31N 37°49' W 122°19'0 0.0
2014-Oct-18 22:31N 37°49' W 122°19'0 0.0
2014-Oct-18 21:31N 37°49' W 122°19'0 0.0
2014-Oct-18 20:31N 37°49' W 122°19'0 0.0
2014-Oct-18 19:31N 37°49' W 122°19'0 0.0
2014-Oct-18 18:31N 37°49' W 122°19'0 0.0
2014-Oct-18 17:31N 37°49' W 122°19'0 0.0
2014-Oct-18 16:31N 37°49' W 122°19'0 0.0
2014-Oct-18 15:31N 37°49' W 122°19'0 0.0
2014-Oct-18 14:31N 37°49' W 122°19'2 1.7
2014-Oct-18 13:33N 37°48' W 122°19'0 0.1
2014-Oct-18 12:33N 37°48' W 122°19'2 1.6
2014-Oct-18 11:34N 37°49' W 122°19'0 0.0
2014-Oct-18 10:31N 37°49' W 122°19'0 0.0
2014-Oct-18 09:31N 37°49' W 122°19'0 0.0
2014-Oct-18 08:31N 37°49' W 122°19'0 0.0
2014-Oct-18 07:34N 37°49' W 122°19'1 1.4
2014-Oct-18 06:33N 37°49' W 122°20'7 7.0
2014-Oct-18 05:32N 37°49' W 122°29'5 5.1
2014-Oct-18 04:33N 37°53' W 122°26'10 9.5
2014-Oct-18 03:33N 38°02' W 122°22'7 0.4
2014-Oct-17 11:08N 38°04' W 122°13'5 8.5
2014-Oct-17 10:32N 38°03' W 122°19'8 8.4
2014-Oct-17 09:34N 37°56' W 122°25'1 0.5
2014-Oct-17 08:27N 37°56' W 122°25'0 0.3
2014-Oct-17 07:33N 37°55' W 122°25'3 2.6
2014-Oct-17 06:33N 37°53' W 122°25'2 2.1
2014-Oct-17 05:32N 37°54' W 122°23'0 0.0
2014-Oct-17 04:32N 37°54' W 122°23'0 0.0
2014-Oct-17 03:32N 37°54' W 122°23'1 1.2
2014-Oct-17 02:34N 37°55' W 122°22'0 0.3
2014-Oct-17 01:33N 37°55' W 122°22'3 2.7
2014-Oct-17 00:30N 37°53' W 122°25'1 0.7
2014-Oct-16 23:29N 37°53' W 122°24'5 5.0
2014-Oct-16 22:33N 37°49' W 122°21'1 0.5
2014-Oct-16 21:32N 37°48' W 122°20'2 1.5
2014-Oct-16 20:31N 37°49' W 122°19'0 0.0
2014-Oct-16 19:31N 37°49' W 122°19'0 0.0
2014-Oct-16 18:31N 37°49' W 122°19'0 0.0
2014-Oct-16 17:31N 37°49' W 122°19'0 0.0
2014-Oct-16 16:31N 37°49' W 122°19'0 0.0
2014-Oct-16 15:31N 37°49' W 122°19'0 0.0
2014-Oct-16 14:28N 37°49' W 122°19'2 1.7
2014-Oct-16 13:31N 37°48' W 122°20'2 2.2
2014-Oct-16 12:33N 37°47' W 122°23'2 2.0
2014-Oct-16 11:33N 37°48' W 122°20'0 0.0
2014-Oct-16 03:12N 37°49' W 122°20'3 5.4
2014-Oct-16 02:33N 37°51' W 122°23'  

Dump ship's entire track history